sensor_id;sensor_type;location;lat;lon;timestamp;P1;durP1;ratioP1;P2;durP2;ratioP2
3253;SDS011;1639;42.804;23.342;2023-07-28T00:01:29;4.90;;;1.60;;
3253;SDS011;1639;42.804;23.342;2023-07-28T00:03:54;4.80;;;1.60;;
3253;SDS011;1639;42.804;23.342;2023-07-28T00:06:20;4.87;;;1.70;;
3253;SDS011;1639;42.804;23.342;2023-07-28T00:08:45;5.10;;;2.07;;
3253;SDS011;1639;42.804;23.342;2023-07-28T00:11:11;5.33;;;1.83;;
3253;SDS011;1639;42.804;23.342;2023-07-28T00:13:38;5.00;;;1.80;;
3253;SDS011;1639;42.804;23.342;2023-07-28T00:16:04;9.33;;;2.27;;
3253;SDS011;1639;42.804;23.342;2023-07-28T00:18:30;5.40;;;1.80;;
3253;SDS011;1639;42.804;23.342;2023-07-28T00:20:56;6.03;;;1.97;;
3253;SDS011;1639;42.804;23.342;2023-07-28T00:23:21;4.70;;;1.53;;
3253;SDS011;1639;42.804;23.342;2023-07-28T00:25:46;4.70;;;1.40;;
3253;SDS011;1639;42.804;23.342;2023-07-28T00:28:12;4.83;;;1.70;;
3253;SDS011;1639;42.804;23.342;2023-07-28T00:30:38;5.10;;;1.50;;
3253;SDS011;1639;42.804;23.342;2023-07-28T00:33:04;4.90;;;1.90;;
3253;SDS011;1639;42.804;23.342;2023-07-28T00:35:29;5.53;;;1.80;;
3253;SDS011;1639;42.804;23.342;2023-07-28T00:37:56;5.20;;;2.00;;
3253;SDS011;1639;42.804;23.342;2023-07-28T00:40:22;5.20;;;1.70;;
3253;SDS011;1639;42.804;23.342;2023-07-28T00:42:47;5.20;;;1.70;;
3253;SDS011;1639;42.804;23.342;2023-07-28T00:45:13;4.90;;;1.70;;
3253;SDS011;1639;42.804;23.342;2023-07-28T00:47:38;5.83;;;1.73;;
3253;SDS011;1639;42.804;23.342;2023-07-28T00:50:05;5.20;;;1.70;;
3253;SDS011;1639;42.804;23.342;2023-07-28T00:52:31;4.90;;;1.50;;
3253;SDS011;1639;42.804;23.342;2023-07-28T00:54:57;5.50;;;1.90;;
3253;SDS011;1639;42.804;23.342;2023-07-28T00:57:22;5.67;;;2.10;;
3253;SDS011;1639;42.804;23.342;2023-07-28T00:59:47;7.73;;;2.07;;
3253;SDS011;1639;42.804;23.342;2023-07-28T01:02:13;5.10;;;1.90;;
3253;SDS011;1639;42.804;23.342;2023-07-28T01:04:39;4.90;;;1.60;;
3253;SDS011;1639;42.804;23.342;2023-07-28T01:08:08;5.90;;;2.17;;
3253;SDS011;1639;42.804;23.342;2023-07-28T01:10:24;4.80;;;1.40;;
3253;SDS011;1639;42.804;23.342;2023-07-28T01:12:53;6.27;;;1.83;;
3253;SDS011;1639;42.804;23.342;2023-07-28T01:15:18;5.70;;;2.00;;
3253;SDS011;1639;42.804;23.342;2023-07-28T01:17:44;5.83;;;1.83;;
3253;SDS011;1639;42.804;23.342;2023-07-28T01:20:10;5.53;;;1.50;;
3253;SDS011;1639;42.804;23.342;2023-07-28T01:28:07;4.83;;;1.80;;
3253;SDS011;1639;42.804;23.342;2023-07-28T01:30:33;5.40;;;2.37;;
3253;SDS011;1639;42.804;23.342;2023-07-28T01:32:58;4.80;;;1.40;;
3253;SDS011;1639;42.804;23.342;2023-07-28T01:35:24;4.90;;;1.87;;
3253;SDS011;1639;42.804;23.342;2023-07-28T01:37:50;5.40;;;2.30;;
3253;SDS011;1639;42.804;23.342;2023-07-28T01:40:16;5.67;;;1.83;;
3253;SDS011;1639;42.804;23.342;2023-07-28T01:42:42;5.87;;;1.90;;
3253;SDS011;1639;42.804;23.342;2023-07-28T01:45:08;5.10;;;1.80;;
3253;SDS011;1639;42.804;23.342;2023-07-28T01:47:34;5.37;;;2.03;;
3253;SDS011;1639;42.804;23.342;2023-07-28T01:49:59;5.83;;;1.90;;
3253;SDS011;1639;42.804;23.342;2023-07-28T01:52:24;4.80;;;1.60;;
3253;SDS011;1639;42.804;23.342;2023-07-28T01:54:50;5.87;;;2.10;;
3253;SDS011;1639;42.804;23.342;2023-07-28T01:57:15;6.00;;;1.87;;
3253;SDS011;1639;42.804;23.342;2023-07-28T01:59:41;11.03;;;2.17;;
3253;SDS011;1639;42.804;23.342;2023-07-28T02:02:06;4.83;;;1.40;;
3253;SDS011;1639;42.804;23.342;2023-07-28T02:04:31;9.17;;;2.70;;
3253;SDS011;1639;42.804;23.342;2023-07-28T02:06:57;5.00;;;1.60;;
3253;SDS011;1639;42.804;23.342;2023-07-28T02:09:22;5.50;;;1.60;;
3253;SDS011;1639;42.804;23.342;2023-07-28T02:11:47;5.07;;;1.70;;
3253;SDS011;1639;42.804;23.342;2023-07-28T02:14:13;5.30;;;1.70;;
3253;SDS011;1639;42.804;23.342;2023-07-28T02:16:38;8.20;;;2.60;;
3253;SDS011;1639;42.804;23.342;2023-07-28T02:19:03;5.70;;;1.73;;
3253;SDS011;1639;42.804;23.342;2023-07-28T02:21:29;5.30;;;2.07;;
3253;SDS011;1639;42.804;23.342;2023-07-28T02:23:54;5.30;;;2.60;;
3253;SDS011;1639;42.804;23.342;2023-07-28T02:26:20;4.87;;;1.50;;
3253;SDS011;1639;42.804;23.342;2023-07-28T02:28:45;4.70;;;1.40;;
3253;SDS011;1639;42.804;23.342;2023-07-28T02:31:11;5.20;;;2.07;;
3253;SDS011;1639;42.804;23.342;2023-07-28T02:33:36;5.00;;;1.80;;
3253;SDS011;1639;42.804;23.342;2023-07-28T02:36:02;6.20;;;1.50;;
3253;SDS011;1639;42.804;23.342;2023-07-28T02:38:29;4.87;;;1.50;;
3253;SDS011;1639;42.804;23.342;2023-07-28T02:40:54;5.80;;;2.13;;
3253;SDS011;1639;42.804;23.342;2023-07-28T02:43:19;4.90;;;1.93;;
3253;SDS011;1639;42.804;23.342;2023-07-28T02:45:54;5.57;;;1.90;;
3253;SDS011;1639;42.804;23.342;2023-07-28T02:48:21;4.80;;;1.53;;
3253;SDS011;1639;42.804;23.342;2023-07-28T02:50:48;5.20;;;1.70;;
3253;SDS011;1639;42.804;23.342;2023-07-28T02:53:16;5.70;;;2.37;;
3253;SDS011;1639;42.804;23.342;2023-07-28T02:55:42;5.00;;;1.63;;
3253;SDS011;1639;42.804;23.342;2023-07-28T02:58:08;6.50;;;1.70;;
3253;SDS011;1639;42.804;23.342;2023-07-28T03:00:37;5.00;;;1.90;;
3253;SDS011;1639;42.804;23.342;2023-07-28T03:03:03;4.90;;;1.80;;
3253;SDS011;1639;42.804;23.342;2023-07-28T03:05:30;4.80;;;1.40;;
3253;SDS011;1639;42.804;23.342;2023-07-28T03:07:56;5.50;;;1.80;;
3253;SDS011;1639;42.804;23.342;2023-07-28T03:10:21;6.37;;;2.33;;
3253;SDS011;1639;42.804;23.342;2023-07-28T03:12:47;5.67;;;2.07;;
3253;SDS011;1639;42.804;23.342;2023-07-28T03:15:12;5.20;;;1.73;;
3253;SDS011;1639;42.804;23.342;2023-07-28T03:17:37;6.07;;;1.80;;
3253;SDS011;1639;42.804;23.342;2023-07-28T03:20:03;4.90;;;1.70;;
3253;SDS011;1639;42.804;23.342;2023-07-28T03:22:29;5.10;;;1.83;;
3253;SDS011;1639;42.804;23.342;2023-07-28T03:24:55;6.83;;;1.83;;
3253;SDS011;1639;42.804;23.342;2023-07-28T03:27:21;5.93;;;2.30;;
3253;SDS011;1639;42.804;23.342;2023-07-28T03:29:46;5.23;;;2.20;;
3253;SDS011;1639;42.804;23.342;2023-07-28T03:32:11;5.73;;;1.60;;
3253;SDS011;1639;42.804;23.342;2023-07-28T03:34:37;5.10;;;1.80;;
3253;SDS011;1639;42.804;23.342;2023-07-28T03:37:02;6.40;;;1.97;;
3253;SDS011;1639;42.804;23.342;2023-07-28T03:39:28;5.10;;;2.03;;
3253;SDS011;1639;42.804;23.342;2023-07-28T03:41:54;16.10;;;2.53;;
3253;SDS011;1639;42.804;23.342;2023-07-28T03:44:20;4.97;;;1.57;;
3253;SDS011;1639;42.804;23.342;2023-07-28T03:46:45;5.10;;;1.80;;
3253;SDS011;1639;42.804;23.342;2023-07-28T03:49:11;6.03;;;1.93;;
3253;SDS011;1639;42.804;23.342;2023-07-28T03:51:37;5.40;;;2.20;;
3253;SDS011;1639;42.804;23.342;2023-07-28T03:54:02;4.77;;;1.20;;
3253;SDS011;1639;42.804;23.342;2023-07-28T03:56:27;5.73;;;1.73;;
3253;SDS011;1639;42.804;23.342;2023-07-28T03:58:53;5.40;;;2.00;;
3253;SDS011;1639;42.804;23.342;2023-07-28T04:01:19;5.67;;;1.80;;
3253;SDS011;1639;42.804;23.342;2023-07-28T04:03:46;5.60;;;1.80;;
3253;SDS011;1639;42.804;23.342;2023-07-28T04:06:12;5.10;;;1.53;;
3253;SDS011;1639;42.804;23.342;2023-07-28T04:08:38;4.77;;;1.40;;
3253;SDS011;1639;42.804;23.342;2023-07-28T04:11:04;4.90;;;1.40;;
3253;SDS011;1639;42.804;23.342;2023-07-28T04:13:29;5.10;;;1.93;;
3253;SDS011;1639;42.804;23.342;2023-07-28T04:15:55;4.90;;;1.63;;
3253;SDS011;1639;42.804;23.342;2023-07-28T04:18:20;5.40;;;1.90;;
3253;SDS011;1639;42.804;23.342;2023-07-28T04:20:46;5.00;;;1.90;;
3253;SDS011;1639;42.804;23.342;2023-07-28T04:23:11;6.60;;;1.50;;
3253;SDS011;1639;42.804;23.342;2023-07-28T04:25:37;5.10;;;1.67;;
3253;SDS011;1639;42.804;23.342;2023-07-28T04:28:02;4.87;;;1.83;;
3253;SDS011;1639;42.804;23.342;2023-07-28T04:30:28;5.00;;;1.90;;
3253;SDS011;1639;42.804;23.342;2023-07-28T04:32:53;5.10;;;1.90;;
3253;SDS011;1639;42.804;23.342;2023-07-28T04:35:18;5.40;;;2.00;;
3253;SDS011;1639;42.804;23.342;2023-07-28T04:37:44;4.90;;;1.67;;
3253;SDS011;1639;42.804;23.342;2023-07-28T04:40:09;4.80;;;1.50;;
3253;SDS011;1639;42.804;23.342;2023-07-28T04:42:35;7.70;;;2.70;;
3253;SDS011;1639;42.804;23.342;2023-07-28T04:45:01;5.10;;;1.73;;
3253;SDS011;1639;42.804;23.342;2023-07-28T04:47:27;5.13;;;2.03;;
3253;SDS011;1639;42.804;23.342;2023-07-28T04:49:52;5.77;;;2.13;;
3253;SDS011;1639;42.804;23.342;2023-07-28T04:52:18;7.23;;;2.00;;
3253;SDS011;1639;42.804;23.342;2023-07-28T04:54:43;4.97;;;1.70;;
3253;SDS011;1639;42.804;23.342;2023-07-28T04:57:09;5.00;;;1.90;;
3253;SDS011;1639;42.804;23.342;2023-07-28T04:59:34;6.10;;;2.10;;
3253;SDS011;1639;42.804;23.342;2023-07-28T05:01:59;7.83;;;1.87;;
3253;SDS011;1639;42.804;23.342;2023-07-28T05:04:25;6.80;;;2.47;;
3253;SDS011;1639;42.804;23.342;2023-07-28T05:06:50;9.43;;;2.40;;
3253;SDS011;1639;42.804;23.342;2023-07-28T05:09:16;6.20;;;2.20;;
3253;SDS011;1639;42.804;23.342;2023-07-28T05:11:41;5.33;;;1.80;;
3253;SDS011;1639;42.804;23.342;2023-07-28T05:14:07;5.10;;;2.07;;
3253;SDS011;1639;42.804;23.342;2023-07-28T05:16:33;6.20;;;2.70;;
3253;SDS011;1639;42.804;23.342;2023-07-28T05:18:59;5.87;;;1.83;;
3253;SDS011;1639;42.804;23.342;2023-07-28T05:21:25;5.43;;;1.97;;
3253;SDS011;1639;42.804;23.342;2023-07-28T05:23:50;5.30;;;2.00;;
3253;SDS011;1639;42.804;23.342;2023-07-28T05:26:16;5.43;;;2.00;;
3253;SDS011;1639;42.804;23.342;2023-07-28T05:28:41;4.93;;;1.87;;
3253;SDS011;1639;42.804;23.342;2023-07-28T05:31:07;5.70;;;2.30;;
3253;SDS011;1639;42.804;23.342;2023-07-28T05:33:32;5.00;;;2.07;;
3253;SDS011;1639;42.804;23.342;2023-07-28T05:35:59;5.20;;;2.10;;
3253;SDS011;1639;42.804;23.342;2023-07-28T05:38:26;5.27;;;2.10;;
3253;SDS011;1639;42.804;23.342;2023-07-28T05:41:01;4.90;;;2.00;;
3253;SDS011;1639;42.804;23.342;2023-07-28T05:43:28;5.87;;;2.37;;
3253;SDS011;1639;42.804;23.342;2023-07-28T05:45:57;10.30;;;2.47;;
3253;SDS011;1639;42.804;23.342;2023-07-28T05:48:23;5.77;;;2.00;;
3253;SDS011;1639;42.804;23.342;2023-07-28T05:50:48;6.90;;;2.30;;
3253;SDS011;1639;42.804;23.342;2023-07-28T05:53:16;7.00;;;2.37;;
3253;SDS011;1639;42.804;23.342;2023-07-28T05:55:41;5.87;;;1.80;;
3253;SDS011;1639;42.804;23.342;2023-07-28T05:58:07;7.63;;;2.70;;
3253;SDS011;1639;42.804;23.342;2023-07-28T06:00:32;6.33;;;2.20;;
3253;SDS011;1639;42.804;23.342;2023-07-28T06:02:58;5.13;;;2.00;;
3253;SDS011;1639;42.804;23.342;2023-07-28T06:05:23;6.10;;;3.00;;
3253;SDS011;1639;42.804;23.342;2023-07-28T06:07:48;5.10;;;2.07;;
3253;SDS011;1639;42.804;23.342;2023-07-28T06:10:14;6.20;;;3.00;;
3253;SDS011;1639;42.804;23.342;2023-07-28T06:12:39;8.13;;;3.10;;
3253;SDS011;1639;42.804;23.342;2023-07-28T06:15:05;5.90;;;2.50;;
3253;SDS011;1639;42.804;23.342;2023-07-28T06:17:30;5.40;;;2.20;;
3253;SDS011;1639;42.804;23.342;2023-07-28T06:19:56;5.37;;;2.27;;
3253;SDS011;1639;42.804;23.342;2023-07-28T06:22:21;5.70;;;2.50;;
3253;SDS011;1639;42.804;23.342;2023-07-28T06:24:47;7.47;;;2.80;;
3253;SDS011;1639;42.804;23.342;2023-07-28T06:27:13;7.37;;;2.63;;
3253;SDS011;1639;42.804;23.342;2023-07-28T06:29:38;5.50;;;2.40;;
3253;SDS011;1639;42.804;23.342;2023-07-28T06:32:04;6.13;;;2.63;;
3253;SDS011;1639;42.804;23.342;2023-07-28T06:34:30;5.97;;;2.70;;
3253;SDS011;1639;42.804;23.342;2023-07-28T06:36:56;5.97;;;2.70;;
3253;SDS011;1639;42.804;23.342;2023-07-28T06:39:21;6.00;;;2.30;;
3253;SDS011;1639;42.804;23.342;2023-07-28T06:41:46;6.20;;;2.80;;
3253;SDS011;1639;42.804;23.342;2023-07-28T06:44:12;6.27;;;2.40;;
3253;SDS011;1639;42.804;23.342;2023-07-28T06:46:37;8.50;;;3.43;;
3253;SDS011;1639;42.804;23.342;2023-07-28T06:49:02;6.40;;;2.43;;
3253;SDS011;1639;42.804;23.342;2023-07-28T06:51:28;6.90;;;2.83;;
3253;SDS011;1639;42.804;23.342;2023-07-28T06:53:54;6.93;;;2.67;;
3253;SDS011;1639;42.804;23.342;2023-07-28T06:56:20;6.83;;;2.80;;
3253;SDS011;1639;42.804;23.342;2023-07-28T06:58:45;5.50;;;2.50;;
3253;SDS011;1639;42.804;23.342;2023-07-28T07:01:10;7.43;;;3.10;;
3253;SDS011;1639;42.804;23.342;2023-07-28T07:03:36;6.10;;;2.67;;
3253;SDS011;1639;42.804;23.342;2023-07-28T07:06:02;7.13;;;3.03;;
3253;SDS011;1639;42.804;23.342;2023-07-28T07:08:27;5.90;;;2.83;;
3253;SDS011;1639;42.804;23.342;2023-07-28T07:10:53;5.90;;;2.37;;
3253;SDS011;1639;42.804;23.342;2023-07-28T07:13:18;5.97;;;2.73;;
3253;SDS011;1639;42.804;23.342;2023-07-28T07:15:44;5.47;;;2.70;;
3253;SDS011;1639;42.804;23.342;2023-07-28T07:18:10;7.43;;;3.53;;
3253;SDS011;1639;42.804;23.342;2023-07-28T07:20:37;6.70;;;2.90;;
3253;SDS011;1639;42.804;23.342;2023-07-28T07:23:03;5.93;;;3.00;;
3253;SDS011;1639;42.804;23.342;2023-07-28T07:25:29;5.20;;;2.30;;
3253;SDS011;1639;42.804;23.342;2023-07-28T07:27:54;5.20;;;2.50;;
3253;SDS011;1639;42.804;23.342;2023-07-28T07:30:20;5.30;;;2.50;;
3253;SDS011;1639;42.804;23.342;2023-07-28T07:32:45;5.80;;;3.20;;
3253;SDS011;1639;42.804;23.342;2023-07-28T07:35:11;7.30;;;3.40;;
3253;SDS011;1639;42.804;23.342;2023-07-28T07:37:37;5.80;;;2.73;;
3253;SDS011;1639;42.804;23.342;2023-07-28T07:40:03;5.73;;;2.67;;
3253;SDS011;1639;42.804;23.342;2023-07-28T07:42:33;6.50;;;3.00;;
3253;SDS011;1639;42.804;23.342;2023-07-28T07:45:07;7.50;;;3.17;;
3253;SDS011;1639;42.804;23.342;2023-07-28T07:47:34;7.00;;;3.73;;
3253;SDS011;1639;42.804;23.342;2023-07-28T07:49:59;5.27;;;2.47;;
3253;SDS011;1639;42.804;23.342;2023-07-28T07:52:25;5.47;;;2.70;;
3253;SDS011;1639;42.804;23.342;2023-07-28T07:54:51;5.40;;;2.80;;
3253;SDS011;1639;42.804;23.342;2023-07-28T07:57:16;6.07;;;2.97;;
3253;SDS011;1639;42.804;23.342;2023-07-28T07:59:42;6.23;;;3.10;;
3253;SDS011;1639;42.804;23.342;2023-07-28T08:02:08;7.13;;;3.33;;
3253;SDS011;1639;42.804;23.342;2023-07-28T08:04:33;11.30;;;3.00;;
3253;SDS011;1639;42.804;23.342;2023-07-28T08:06:58;6.10;;;3.20;;
3253;SDS011;1639;42.804;23.342;2023-07-28T08:09:24;10.30;;;3.57;;
3253;SDS011;1639;42.804;23.342;2023-07-28T08:11:49;8.30;;;3.40;;
3253;SDS011;1639;42.804;23.342;2023-07-28T08:14:15;5.10;;;2.57;;
3253;SDS011;1639;42.804;23.342;2023-07-28T08:16:41;7.93;;;2.93;;
3253;SDS011;1639;42.804;23.342;2023-07-28T08:19:06;8.73;;;4.00;;
3253;SDS011;1639;42.804;23.342;2023-07-28T08:21:31;6.50;;;3.90;;
3253;SDS011;1639;42.804;23.342;2023-07-28T08:24:01;6.30;;;3.10;;
3253;SDS011;1639;42.804;23.342;2023-07-28T08:26:28;6.07;;;3.00;;
3253;SDS011;1639;42.804;23.342;2023-07-28T08:28:54;6.33;;;3.20;;
3253;SDS011;1639;42.804;23.342;2023-07-28T08:31:19;5.30;;;2.80;;
3253;SDS011;1639;42.804;23.342;2023-07-28T08:33:45;6.00;;;2.93;;
3253;SDS011;1639;42.804;23.342;2023-07-28T08:36:10;5.67;;;2.97;;
3253;SDS011;1639;42.804;23.342;2023-07-28T08:38:35;5.30;;;2.40;;
3253;SDS011;1639;42.804;23.342;2023-07-28T08:41:01;8.83;;;4.30;;
3253;SDS011;1639;42.804;23.342;2023-07-28T08:43:26;5.43;;;2.90;;
3253;SDS011;1639;42.804;23.342;2023-07-28T08:45:52;5.63;;;2.87;;
3253;SDS011;1639;42.804;23.342;2023-07-28T08:48:19;6.10;;;3.03;;
3253;SDS011;1639;42.804;23.342;2023-07-28T08:50:45;5.37;;;3.03;;
3253;SDS011;1639;42.804;23.342;2023-07-28T08:53:10;8.83;;;3.30;;
3253;SDS011;1639;42.804;23.342;2023-07-28T08:55:35;5.57;;;2.67;;
3253;SDS011;1639;42.804;23.342;2023-07-28T08:58:13;5.87;;;2.67;;
3253;SDS011;1639;42.804;23.342;2023-07-28T09:00:46;7.63;;;3.10;;
3253;SDS011;1639;42.804;23.342;2023-07-28T09:03:14;6.43;;;3.07;;
3253;SDS011;1639;42.804;23.342;2023-07-28T09:05:41;6.87;;;3.00;;
3253;SDS011;1639;42.804;23.342;2023-07-28T09:08:07;6.63;;;3.00;;
3253;SDS011;1639;42.804;23.342;2023-07-28T09:13:15;6.70;;;3.10;;
3253;SDS011;1639;42.804;23.342;2023-07-28T09:15:42;7.20;;;3.83;;
3253;SDS011;1639;42.804;23.342;2023-07-28T09:18:09;7.33;;;3.47;;
3253;SDS011;1639;42.804;23.342;2023-07-28T09:20:38;5.20;;;2.50;;
3253;SDS011;1639;42.804;23.342;2023-07-28T09:23:06;6.20;;;3.43;;
3253;SDS011;1639;42.804;23.342;2023-07-28T09:25:33;6.13;;;2.70;;
3253;SDS011;1639;42.804;23.342;2023-07-28T09:27:59;6.80;;;3.30;;
3253;SDS011;1639;42.804;23.342;2023-07-28T09:30:25;6.17;;;3.40;;
3253;SDS011;1639;42.804;23.342;2023-07-28T09:32:54;5.73;;;3.10;;
3253;SDS011;1639;42.804;23.342;2023-07-28T09:35:20;9.20;;;3.57;;
3253;SDS011;1639;42.804;23.342;2023-07-28T09:37:48;6.43;;;2.77;;
3253;SDS011;1639;42.804;23.342;2023-07-28T09:40:18;7.50;;;3.50;;
3253;SDS011;1639;42.804;23.342;2023-07-28T09:42:47;7.00;;;3.63;;
3253;SDS011;1639;42.804;23.342;2023-07-28T09:45:15;9.73;;;3.20;;
3253;SDS011;1639;42.804;23.342;2023-07-28T09:47:42;6.63;;;3.47;;
3253;SDS011;1639;42.804;23.342;2023-07-28T09:50:09;7.37;;;3.17;;
3253;SDS011;1639;42.804;23.342;2023-07-28T09:52:39;6.83;;;3.70;;
3253;SDS011;1639;42.804;23.342;2023-07-28T09:55:08;7.50;;;3.57;;
3253;SDS011;1639;42.804;23.342;2023-07-28T09:57:36;6.27;;;3.23;;
3253;SDS011;1639;42.804;23.342;2023-07-28T10:00:06;7.23;;;3.23;;
3253;SDS011;1639;42.804;23.342;2023-07-28T10:02:34;6.50;;;2.93;;
3253;SDS011;1639;42.804;23.342;2023-07-28T10:05:00;7.73;;;3.03;;
3253;SDS011;1639;42.804;23.342;2023-07-28T10:07:27;6.23;;;3.13;;
3253;SDS011;1639;42.804;23.342;2023-07-28T10:09:53;6.27;;;3.00;;
3253;SDS011;1639;42.804;23.342;2023-07-28T10:12:23;5.27;;;2.73;;
3253;SDS011;1639;42.804;23.342;2023-07-28T10:14:59;6.30;;;3.03;;
3253;SDS011;1639;42.804;23.342;2023-07-28T10:17:33;6.00;;;3.10;;
3253;SDS011;1639;42.804;23.342;2023-07-28T10:20:00;8.10;;;3.30;;
3253;SDS011;1639;42.804;23.342;2023-07-28T10:22:32;9.20;;;3.40;;
3253;SDS011;1639;42.804;23.342;2023-07-28T10:25:00;5.83;;;2.77;;
3253;SDS011;1639;42.804;23.342;2023-07-28T10:27:36;7.90;;;3.13;;
3253;SDS011;1639;42.804;23.342;2023-07-28T10:30:04;6.03;;;3.13;;
3253;SDS011;1639;42.804;23.342;2023-07-28T10:32:38;6.17;;;2.93;;
3253;SDS011;1639;42.804;23.342;2023-07-28T10:37:34;6.10;;;2.80;;
3253;SDS011;1639;42.804;23.342;2023-07-28T10:42:48;8.37;;;3.67;;
3253;SDS011;1639;42.804;23.342;2023-07-28T10:45:15;6.87;;;3.20;;
3253;SDS011;1639;42.804;23.342;2023-07-28T10:47:40;6.33;;;2.93;;
3253;SDS011;1639;42.804;23.342;2023-07-28T10:50:09;7.30;;;3.67;;
3253;SDS011;1639;42.804;23.342;2023-07-28T10:52:41;5.70;;;3.10;;
3253;SDS011;1639;42.804;23.342;2023-07-28T10:55:12;6.37;;;3.00;;
3253;SDS011;1639;42.804;23.342;2023-07-28T10:57:38;5.23;;;2.77;;
3253;SDS011;1639;42.804;23.342;2023-07-28T11:00:04;6.00;;;3.10;;
3253;SDS011;1639;42.804;23.342;2023-07-28T11:02:30;5.47;;;2.63;;
3253;SDS011;1639;42.804;23.342;2023-07-28T11:04:56;6.70;;;3.33;;
3253;SDS011;1639;42.804;23.342;2023-07-28T11:07:21;8.00;;;3.33;;
3253;SDS011;1639;42.804;23.342;2023-07-28T11:09:47;5.37;;;2.90;;
3253;SDS011;1639;42.804;23.342;2023-07-28T11:12:12;8.37;;;3.70;;
3253;SDS011;1639;42.804;23.342;2023-07-28T11:14:39;5.47;;;2.87;;
3253;SDS011;1639;42.804;23.342;2023-07-28T11:17:05;6.83;;;2.87;;
3253;SDS011;1639;42.804;23.342;2023-07-28T11:19:31;7.87;;;3.27;;
3253;SDS011;1639;42.804;23.342;2023-07-28T11:21:56;5.73;;;2.50;;
3253;SDS011;1639;42.804;23.342;2023-07-28T11:24:23;5.00;;;2.43;;
3253;SDS011;1639;42.804;23.342;2023-07-28T11:26:49;6.03;;;3.77;;
3253;SDS011;1639;42.804;23.342;2023-07-28T11:29:14;5.23;;;2.77;;
3253;SDS011;1639;42.804;23.342;2023-07-28T11:31:43;7.27;;;3.13;;
3253;SDS011;1639;42.804;23.342;2023-07-28T11:34:13;5.90;;;3.03;;
3253;SDS011;1639;42.804;23.342;2023-07-28T11:36:40;5.20;;;2.73;;
3253;SDS011;1639;42.804;23.342;2023-07-28T11:39:06;6.83;;;3.13;;
3253;SDS011;1639;42.804;23.342;2023-07-28T11:41:32;6.43;;;3.10;;
3253;SDS011;1639;42.804;23.342;2023-07-28T11:43:58;7.30;;;3.20;;
3253;SDS011;1639;42.804;23.342;2023-07-28T11:46:41;5.57;;;2.53;;
3253;SDS011;1639;42.804;23.342;2023-07-28T11:49:11;5.17;;;2.63;;
3253;SDS011;1639;42.804;23.342;2023-07-28T11:51:39;6.13;;;2.70;;
3253;SDS011;1639;42.804;23.342;2023-07-28T11:54:08;5.80;;;2.90;;
3253;SDS011;1639;42.804;23.342;2023-07-28T11:56:36;5.90;;;2.60;;
3253;SDS011;1639;42.804;23.342;2023-07-28T11:59:02;6.57;;;2.90;;
3253;SDS011;1639;42.804;23.342;2023-07-28T12:01:28;6.80;;;2.77;;
3253;SDS011;1639;42.804;23.342;2023-07-28T12:03:53;5.27;;;2.77;;
3253;SDS011;1639;42.804;23.342;2023-07-28T12:06:19;5.70;;;2.80;;
3253;SDS011;1639;42.804;23.342;2023-07-28T12:08:45;5.80;;;3.40;;
3253;SDS011;1639;42.804;23.342;2023-07-28T12:11:13;5.93;;;2.63;;
3253;SDS011;1639;42.804;23.342;2023-07-28T12:13:49;5.00;;;2.37;;
3253;SDS011;1639;42.804;23.342;2023-07-28T12:16:32;6.03;;;2.67;;
3253;SDS011;1639;42.804;23.342;2023-07-28T12:19:03;7.30;;;3.30;;
3253;SDS011;1639;42.804;23.342;2023-07-28T12:21:29;5.03;;;2.70;;
3253;SDS011;1639;42.804;23.342;2023-07-28T12:23:56;5.50;;;2.73;;
3253;SDS011;1639;42.804;23.342;2023-07-28T12:26:21;7.23;;;2.70;;
3253;SDS011;1639;42.804;23.342;2023-07-28T12:28:47;4.90;;;2.30;;
3253;SDS011;1639;42.804;23.342;2023-07-28T12:31:12;6.90;;;3.40;;
3253;SDS011;1639;42.804;23.342;2023-07-28T12:33:37;5.63;;;2.60;;
3253;SDS011;1639;42.804;23.342;2023-07-28T12:36:03;5.00;;;2.63;;
3253;SDS011;1639;42.804;23.342;2023-07-28T12:38:28;8.57;;;2.80;;
3253;SDS011;1639;42.804;23.342;2023-07-28T12:40:54;6.20;;;2.60;;
3253;SDS011;1639;42.804;23.342;2023-07-28T12:43:20;5.20;;;2.63;;
3253;SDS011;1639;42.804;23.342;2023-07-28T12:45:45;5.37;;;2.70;;
3253;SDS011;1639;42.804;23.342;2023-07-28T12:48:11;5.10;;;2.43;;
3253;SDS011;1639;42.804;23.342;2023-07-28T12:50:36;4.77;;;2.50;;
3253;SDS011;1639;42.804;23.342;2023-07-28T12:53:02;5.03;;;2.60;;
3253;SDS011;1639;42.804;23.342;2023-07-28T12:55:28;5.60;;;3.60;;
3253;SDS011;1639;42.804;23.342;2023-07-28T12:57:53;6.03;;;3.00;;
3253;SDS011;1639;42.804;23.342;2023-07-28T13:00:19;4.87;;;2.37;;
3253;SDS011;1639;42.804;23.342;2023-07-28T13:02:44;5.07;;;2.70;;
3253;SDS011;1639;42.804;23.342;2023-07-28T13:05:13;5.90;;;3.40;;
3253;SDS011;1639;42.804;23.342;2023-07-28T13:07:40;5.10;;;2.80;;
3253;SDS011;1639;42.804;23.342;2023-07-28T13:10:07;5.53;;;3.10;;
3253;SDS011;1639;42.804;23.342;2023-07-28T13:12:35;5.83;;;2.63;;
3253;SDS011;1639;42.804;23.342;2023-07-28T13:15:01;5.90;;;2.70;;
3253;SDS011;1639;42.804;23.342;2023-07-28T13:17:27;6.33;;;2.80;;
3253;SDS011;1639;42.804;23.342;2023-07-28T13:19:53;7.23;;;3.00;;
3253;SDS011;1639;42.804;23.342;2023-07-28T13:22:18;6.80;;;3.37;;
3253;SDS011;1639;42.804;23.342;2023-07-28T13:24:43;5.50;;;2.90;;
3253;SDS011;1639;42.804;23.342;2023-07-28T13:27:09;6.83;;;2.87;;
3253;SDS011;1639;42.804;23.342;2023-07-28T13:29:34;5.40;;;2.73;;
3253;SDS011;1639;42.804;23.342;2023-07-28T13:32:00;5.90;;;3.33;;
3253;SDS011;1639;42.804;23.342;2023-07-28T13:34:26;5.00;;;2.53;;
3253;SDS011;1639;42.804;23.342;2023-07-28T13:36:52;5.67;;;2.80;;
3253;SDS011;1639;42.804;23.342;2023-07-28T13:39:21;6.23;;;2.67;;
3253;SDS011;1639;42.804;23.342;2023-07-28T13:41:46;6.37;;;3.10;;
3253;SDS011;1639;42.804;23.342;2023-07-28T13:44:12;5.53;;;2.60;;
3253;SDS011;1639;42.804;23.342;2023-07-28T13:46:37;5.10;;;2.60;;
3253;SDS011;1639;42.804;23.342;2023-07-28T13:49:03;5.53;;;2.70;;
3253;SDS011;1639;42.804;23.342;2023-07-28T13:51:28;5.40;;;2.90;;
3253;SDS011;1639;42.804;23.342;2023-07-28T13:53:54;5.10;;;2.67;;
3253;SDS011;1639;42.804;23.342;2023-07-28T13:56:19;6.13;;;3.07;;
3253;SDS011;1639;42.804;23.342;2023-07-28T13:58:45;5.07;;;2.33;;
3253;SDS011;1639;42.804;23.342;2023-07-28T14:01:10;6.00;;;2.73;;
3253;SDS011;1639;42.804;23.342;2023-07-28T14:03:35;5.63;;;2.83;;
3253;SDS011;1639;42.804;23.342;2023-07-28T14:06:01;5.77;;;2.80;;
3253;SDS011;1639;42.804;23.342;2023-07-28T14:08:26;5.80;;;2.63;;
3253;SDS011;1639;42.804;23.342;2023-07-28T14:10:52;5.33;;;2.63;;
3253;SDS011;1639;42.804;23.342;2023-07-28T14:13:18;5.67;;;2.97;;
3253;SDS011;1639;42.804;23.342;2023-07-28T14:15:43;6.03;;;2.67;;
3253;SDS011;1639;42.804;23.342;2023-07-28T14:18:09;6.27;;;2.80;;
3253;SDS011;1639;42.804;23.342;2023-07-28T14:20:34;6.37;;;3.00;;
3253;SDS011;1639;42.804;23.342;2023-07-28T14:22:59;6.60;;;2.40;;
3253;SDS011;1639;42.804;23.342;2023-07-28T14:25:28;6.97;;;3.23;;
3253;SDS011;1639;42.804;23.342;2023-07-28T14:27:53;6.90;;;2.77;;
3253;SDS011;1639;42.804;23.342;2023-07-28T14:30:18;6.03;;;3.00;;
3253;SDS011;1639;42.804;23.342;2023-07-28T14:32:44;5.03;;;2.63;;
3253;SDS011;1639;42.804;23.342;2023-07-28T14:35:09;7.33;;;2.63;;
3253;SDS011;1639;42.804;23.342;2023-07-28T14:37:35;5.53;;;2.27;;
3253;SDS011;1639;42.804;23.342;2023-07-28T14:40:00;5.03;;;2.33;;
3253;SDS011;1639;42.804;23.342;2023-07-28T14:42:25;7.10;;;2.47;;
3253;SDS011;1639;42.804;23.342;2023-07-28T14:44:51;5.00;;;2.67;;
3253;SDS011;1639;42.804;23.342;2023-07-28T14:47:16;5.10;;;2.63;;
3253;SDS011;1639;42.804;23.342;2023-07-28T14:49:41;4.93;;;2.47;;
3253;SDS011;1639;42.804;23.342;2023-07-28T14:52:07;5.30;;;2.20;;
3253;SDS011;1639;42.804;23.342;2023-07-28T14:54:32;5.70;;;2.80;;
3253;SDS011;1639;42.804;23.342;2023-07-28T14:56:58;5.97;;;3.27;;
3253;SDS011;1639;42.804;23.342;2023-07-28T14:59:23;5.07;;;2.60;;
3253;SDS011;1639;42.804;23.342;2023-07-28T15:01:49;6.20;;;3.07;;
3253;SDS011;1639;42.804;23.342;2023-07-28T15:04:14;6.50;;;2.70;;
3253;SDS011;1639;42.804;23.342;2023-07-28T15:06:40;5.40;;;2.17;;
3253;SDS011;1639;42.804;23.342;2023-07-28T15:09:06;5.60;;;3.07;;